Time;durP1;ratioP1;P1;durP2;ratioP2;P2;SDS_P1;SDS_P2;PMS_P1;PMS_P2;Temp;Humidity;BMP_temperature;BMP_pressure;BME280_temperature;BME280_humidity;BME280_pressure;Samples;Min_cycle;Max_cycle;Signal;HPM_P1;HPM_P2
2023/06/11 00:00:25;;;;;;;0.40;0.40;;;;;;;18.87;66.13;96702.63;29395;211;63016;-53
2023/06/11 00:00:57;;;;;;;0.40;0.40;;;;;;;18.87;66.05;96703.44;29395;197;63004;-63
2023/06/11 00:01:29;;;;;;;0.40;0.40;;;;;;;18.88;66.29;96704.22;29395;248;63026;-63
2023/06/11 00:02:00;;;;;;;0.40;0.40;;;;;;;18.86;66.12;96707.34;29395;214;63004;-64
2023/06/11 00:02:33;;;;;;;0.88;0.88;;;;;;;18.87;66.52;96702.63;29395;205;63008;-64
2023/06/11 00:03:05;;;;;;;0.40;0.40;;;;;;;18.86;66.16;96701.84;29395;205;63004;-63
2023/06/11 00:03:40;;;;;;;0.30;0.30;;;;;;;18.86;66.13;96701.84;29393;236;64014;-64
2023/06/11 00:04:12;;;;;;;0.40;0.40;;;;;;;18.85;66.60;96697.47;29395;216;63005;-52
2023/06/11 00:04:45;;;;;;;0.37;0.37;;;;;;;18.84;66.72;96697.84;29393;274;64014;-63
2023/06/11 00:05:19;;;;;;;0.40;0.40;;;;;;;18.83;66.78;96702.53;29395;221;63005;-53
2023/06/11 00:05:54;;;;;;;0.30;0.30;;;;;;;18.83;66.35;96690.75;29395;244;63009;-65
2023/06/11 00:06:25;;;;;;;0.30;0.30;;;;;;;18.83;66.80;96701.72;29395;225;63005;-66
2023/06/11 00:06:56;;;;;;;0.40;0.40;;;;;;;18.75;67.35;96693.28;29395;202;63009;-65
2023/06/11 00:07:28;;;;;;;0.40;0.40;;;;;;;18.80;68.06;96702.44;29395;220;63010;-53
2023/06/11 00:08:00;;;;;;;0.40;0.40;;;;;;;18.79;68.08;96706.31;29395;199;63009;-65
2023/06/11 00:08:32;;;;;;;0.40;0.40;;;;;;;18.77;68.25;96700.37;29395;202;63004;-65
2023/06/11 00:09:04;;;;;;;0.40;0.40;;;;;;;18.74;67.71;96708.16;29393;209;64013;-53
2023/06/11 00:09:36;;;;;;;0.40;0.40;;;;;;;18.75;67.81;96706.22;29395;253;63009;-64
2023/06/11 00:10:08;;;;;;;0.40;0.40;;;;;;;18.71;67.32;96700.63;29395;206;63008;-64
2023/06/11 00:10:39;;;;;;;0.40;0.40;;;;;;;18.72;67.58;96701.44;29395;208;63004;-66
2023/06/11 00:11:11;;;;;;;0.40;0.40;;;;;;;18.73;67.38;96701.06;29395;203;63009;-66
2023/06/11 00:11:43;;;;;;;0.40;0.40;;;;;;;18.73;67.71;96703.81;29395;216;63005;-68
2023/06/11 00:12:17;;;;;;;0.40;0.40;;;;;;;18.73;67.43;96700.28;29395;217;63009;-65
2023/06/11 00:12:48;;;;;;;0.40;0.40;;;;;;;18.71;67.58;96703.38;29395;202;63005;-64
2023/06/11 00:13:20;;;;;;;0.40;0.40;;;;;;;18.72;67.19;96704.19;29395;206;63019;-53
2023/06/11 00:13:53;;;;;;;0.40;0.40;;;;;;;18.73;67.29;96703.81;29393;239;64009;-66
2023/06/11 00:14:25;;;;;;;0.40;0.40;;;;;;;18.74;67.32;96701.88;29395;218;63009;-53
2023/06/11 00:14:57;;;;;;;0.30;0.30;;;;;;;18.74;67.45;96694.44;29395;210;63003;-53
2023/06/11 00:15:30;;;;;;;0.40;0.40;;;;;;;18.74;67.10;96699.94;29395;211;63009;-67
2023/06/11 00:16:02;;;;;;;0.40;0.40;;;;;;;18.75;67.51;96696.03;29394;207;63004;-52
2023/06/11 00:16:36;;;;;;;0.40;0.40;;;;;;;18.77;67.10;96692.13;29395;224;63009;-63
2023/06/11 00:17:11;;;;;;;0.40;0.40;;;;;;;18.78;67.42;96685.50;29395;215;63004;-52
2023/06/11 00:17:42;;;;;;;0.40;0.40;;;;;;;18.81;67.00;96698.53;29393;204;64013;-64
2023/06/11 00:18:16;;;;;;;0.40;0.40;;;;;;;18.81;67.39;96696.59;29395;206;63004;-53
2023/06/11 00:18:48;;;;;;;0.40;0.40;;;;;;;18.81;67.02;96695.78;29394;252;63009;-54
2023/06/11 00:19:20;;;;;;;0.40;0.40;;;;;;;18.80;67.31;96694.97;29395;202;63010;-65
2023/06/11 00:19:52;;;;;;;0.40;0.40;;;;;;;18.80;67.54;96696.94;29394;204;64013;-65
2023/06/11 00:20:27;;;;;;;0.40;0.40;;;;;;;18.79;68.13;96695.34;29395;208;63005;-67
2023/06/11 00:20:59;;;;;;;0.40;0.40;;;;;;;18.75;67.85;96696.03;29394;242;64013;-53
2023/06/11 00:21:31;;;;;;;0.40;0.40;;;;;;;18.74;68.63;96699.94;29395;206;63005;-53
2023/06/11 00:22:05;;;;;;;0.40;0.40;;;;;;;18.71;68.48;96692.37;29395;197;63009;-65
2023/06/11 00:22:38;;;;;;;0.35;0.35;;;;;;;18.69;68.76;96697.44;29395;204;63004;-53
2023/06/11 00:23:10;;;;;;;0.40;0.40;;;;;;;18.68;68.53;96695.06;29395;237;63009;-53
2023/06/11 00:23:43;;;;;;;0.40;0.40;;;;;;;18.65;68.29;96691.06;29395;237;63004;-67
2023/06/11 00:24:15;;;;;;;0.40;0.40;;;;;;;18.64;68.80;96697.69;29395;198;63008;-66
2023/06/11 00:24:47;;;;;;;0.40;0.40;;;;;;;18.63;68.42;96693.34;29395;203;63004;-53
2023/06/11 00:26:31;;;;;;;0.40;0.40;;;;;;;18.60;68.98;96694.03;88180;206;64005;-91
2023/06/11 00:27:03;;;;;;;0.40;0.40;;;;;;;18.59;69.06;96694.38;29394;211;64009;-89
2023/06/11 00:27:36;;;;;;;0.40;0.40;;;;;;;18.58;68.90;96690.81;29395;208;63005;-88
2023/06/11 00:28:08;;;;;;;0.40;0.40;;;;;;;18.56;68.85;96693.13;29395;236;63009;-91
2023/06/11 00:28:41;;;;;;;0.40;0.40;;;;;;;18.54;69.55;96689.91;29395;204;63005;-91
2023/06/11 00:29:13;;;;;;;0.40;0.40;;;;;;;18.53;69.88;96690.25;29394;202;64013;-89
2023/06/11 00:29:45;;;;;;;0.30;0.30;;;;;;;18.49;69.84;96687.41;29395;223;63005;-90
2023/06/11 00:30:17;;;;;;;0.40;0.40;;;;;;;18.48;70.47;96693.25;29395;205;63009;-90
2023/06/11 00:30:48;;;;;;;0.40;0.40;;;;;;;18.47;69.89;96694.41;29395;234;63004;-89
2023/06/11 00:31:20;;;;;;;0.40;0.40;;;;;;;18.48;69.80;96694.06;29394;204;64013;-88
2023/06/11 00:31:55;;;;;;;0.40;0.40;;;;;;;18.49;69.44;96687.41;29395;202;63004;-88
2023/06/11 00:32:26;;;;;;;0.40;0.40;;;;;;;18.51;69.39;96690.59;29395;203;63009;-90
2023/06/11 00:33:00;;;;;;;0.40;0.40;;;;;;;18.49;69.72;96692.91;29395;233;63011;-89
2023/06/11 00:33:32;;;;;;;0.40;0.40;;;;;;;18.49;69.80;96692.09;29395;198;63008;-90
2023/06/11 00:34:04;;;;;;;0.40;0.40;;;;;;;18.43;69.44;96683.31;29394;202;64022;-90
2023/06/11 00:34:38;;;;;;;0.40;0.40;;;;;;;18.47;69.69;96689.69;29395;215;63009;-89
2023/06/11 00:35:11;;;;;;;0.40;0.40;;;;;;;18.47;69.56;96686.94;29395;231;63005;-90
2023/06/11 00:35:43;;;;;;;0.40;0.40;;;;;;;18.47;70.16;96692.44;29395;214;63009;-89
2023/06/11 00:36:15;;;;;;;0.30;0.30;;;;;;;18.46;70.32;96690.06;29395;231;63005;-90
2023/06/11 00:36:50;;;;;;;0.40;0.40;;;;;;;18.43;71.19;96686.84;29395;258;63009;-91
2023/06/11 00:37:22;;;;;;;0.40;0.40;;;;;;;18.38;71.51;96687.09;29395;239;63005;-89
2023/06/11 00:37:55;;;;;;;0.40;0.40;;;;;;;18.33;71.44;96689.31;29395;269;63009;-89
2023/06/11 00:38:28;;;;;;;0.30;0.30;;;;;;;18.30;71.66;96690.00;29395;298;63004;-89
2023/06/11 00:39:00;;;;;;;0.40;0.40;;;;;;;18.29;71.13;96688.41;29394;197;64013;-89
2023/06/11 00:39:31;;;;;;;0.40;0.40;;;;;;;18.29;70.98;96693.87;29395;199;63004;-91
2023/06/11 00:40:05;;;;;;;0.40;0.40;;;;;;;18.30;70.87;96695.50;29395;281;63022;-90
2023/06/11 00:40:37;;;;;;;0.40;0.40;;;;;;;18.31;70.72;96691.59;29395;276;63004;-89
2023/06/11 00:41:08;;;;;;;0.40;0.40;;;;;;;18.35;70.91;96689.75;29395;218;63008;-89
2023/06/11 00:41:45;;;;;;;0.40;0.40;;;;;;;18.36;70.66;96694.09;29395;220;63004;-89
2023/06/11 00:42:19;;;;;;;0.40;0.40;;;;;;;18.35;70.71;96693.31;29395;213;63009;-91
2023/06/11 00:42:51;;;;;;;0.40;0.40;;;;;;;18.35;70.61;96692.50;29394;197;64009;-90
2023/06/11 00:43:24;;;;;;;0.40;0.40;;;;;;;18.34;70.37;96697.19;29395;204;63009;-90
2023/06/11 00:43:57;;;;;;;0.40;0.40;;;;;;;18.34;71.64;96696.41;29395;225;63005;-89
2023/06/11 00:44:29;;;;;;;0.40;0.40;;;;;;;18.33;71.15;96694.81;29395;257;63009;-90
2023/06/11 00:45:05;;;;;;;0.40;0.40;;;;;;;18.34;70.84;96693.66;29395;207;63005;-89
2023/06/11 00:45:37;;;;;;;0.40;0.40;;;;;;;18.33;71.67;96692.06;29395;273;63009;-89
2023/06/11 00:46:45;;;;;;;0.40;0.40;;;;;;;18.33;71.04;96695.59;29395;205;63009;-53
2023/06/11 00:47:17;;;;;;;0.40;0.40;;;;;;;18.34;70.93;96693.66;29395;214;63004;-53
2023/06/11 00:47:49;;;;;;;0.40;0.40;;;;;;;18.35;70.76;96698.00;29395;309;63008;-65
2023/06/11 00:48:21;;;;;;;0.40;0.40;;;;;;;18.36;70.51;96694.09;29394;257;64008;-65
2023/06/11 00:48:55;;;;;;;0.40;0.40;;;;;;;18.36;70.83;96694.09;29395;286;63009;-66
2023/06/11 00:49:31;;;;;;;0.40;0.40;;;;;;;18.35;71.08;96698.81;29395;214;63005;-66
2023/06/11 00:50:08;;;;;;;0.40;0.40;;;;;;;18.36;70.53;96689.41;29394;227;64014;-67
2023/06/11 00:50:50;;;;;;;0.40;0.40;;;;;;;18.37;70.74;96690.19;29395;205;63005;-52
2023/06/11 00:51:23;;;;;;;0.40;0.40;;;;;;;18.35;71.19;96692.50;29395;203;63009;-53
2023/06/11 00:51:55;;;;;;;0.40;0.40;;;;;;;18.35;70.81;96692.50;29395;210;63005;-65
2023/06/11 00:52:27;;;;;;;0.40;0.40;;;;;;;18.34;70.87;96688.97;29395;235;63009;-53
2023/06/11 00:52:58;;;;;;;0.40;0.40;;;;;;;18.34;70.94;96696.41;29395;206;63016;-65
2023/06/11 00:53:30;;;;;;;0.40;0.40;;;;;;;18.32;71.48;96693.19;29395;260;63025;-68
2023/06/11 00:54:01;;;;;;;0.40;0.40;;;;;;;18.29;71.82;96688.41;29394;231;64009;-53
2023/06/11 00:54:36;;;;;;;0.40;0.40;;;;;;;18.26;71.77;96692.63;29395;212;63009;-67
2023/06/11 00:55:08;;;;;;;0.40;0.40;;;;;;;18.24;71.42;96691.38;29395;230;63004;-64
2023/06/11 00:55:40;;;;;;;0.40;0.40;;;;;;;18.22;71.18;96688.19;29395;244;63008;-68
2023/06/11 00:56:11;;;;;;;0.40;0.40;;;;;;;18.23;71.17;96689.78;29395;320;63005;-65
2023/06/11 00:56:43;;;;;;;0.40;0.40;;;;;;;18.24;71.43;96692.19;29394;200;64009;-67
2023/06/11 00:57:17;;;;;;;0.40;0.40;;;;;;;18.25;71.18;96692.97;29395;221;63005;-52
2023/06/11 00:57:49;;;;;;;0.40;0.40;;;;;;;18.27;71.33;96690.69;29395;239;63009;-67
2023/06/11 00:58:21;;;;;;;0.40;0.40;;;;;;;18.26;71.69;96691.84;29394;204;64009;-63
2023/06/11 00:58:53;;;;;;;0.40;0.40;;;;;;;18.27;71.24;96693.44;29394;209;64013;-64
2023/06/11 00:59:25;;;;;;;0.40;0.40;;;;;;;18.27;70.90;96693.44;29395;225;63005;-65
2023/06/11 00:59:57;;;;;;;0.40;0.40;;;;;;;18.29;71.54;96693.87;29395;197;63009;-52
2023/06/11 01:00:28;;;;;;;0.40;0.40;;;;;;;18.31;71.19;96688.84;29394;240;64004;-52
2023/06/11 01:01:01;;;;;;;0.40;0.40;;;;;;;18.32;71.03;96693.19;29394;221;64013;-52
2023/06/11 01:01:41;;;;;;;0.40;0.40;;;;;;;18.30;70.90;96690.78;29395;197;63004;-53
2023/06/11 01:02:26;;;;;;;0.50;0.50;;;;;;;18.29;70.68;96693.87;29395;202;63009;-52
2023/06/11 01:03:08;;;;;;;0.40;0.40;;;;;;;18.30;71.30;96701.78;29395;283;63004;-53
2023/06/11 01:03:41;;;;;;;0.40;0.40;;;;;;;18.28;72.01;96692.28;29395;238;63009;-53
2023/06/11 01:04:17;;;;;;;0.40;0.40;;;;;;;18.26;72.18;96695.38;29395;243;63005;-66
2023/06/11 01:04:57;;;;;;;0.40;0.40;;;;;;;18.22;71.99;96699.16;29394;218;64014;-52
2023/06/11 01:05:43;;;;;;;0.40;0.40;;;;;;;18.21;71.77;96692.06;29394;249;64009;-66
2023/06/11 01:06:19;;;;;;;0.40;0.40;;;;;;;18.20;71.47;96696.75;29395;197;63009;-66
2023/06/11 01:06:54;;;;;;;0.40;0.40;;;;;;;18.19;71.52;96694.38;29395;270;63005;-67
2023/06/11 01:07:33;;;;;;;0.40;0.40;;;;;;;18.19;72.05;96694.38;29395;196;63009;-66
2023/06/11 01:08:07;;;;;;;0.50;0.50;;;;;;;18.19;71.55;96699.84;29395;204;63004;-66
2023/06/11 01:08:41;;;;;;;0.50;0.50;;;;;;;18.19;71.69;96694.38;29395;214;63009;-66
2023/06/11 01:09:20;;;;;;;0.50;0.50;;;;;;;18.19;71.55;96697.09;29394;207;64009;-65
2023/06/11 01:09:53;;;;;;;0.50;0.50;;;;;;;18.19;71.97;96695.16;29395;211;63009;-53
2023/06/11 01:10:26;;;;;;;0.40;0.40;;;;;;;18.21;71.67;96700.31;29395;199;63004;-65
2023/06/11 01:11:02;;;;;;;0.50;0.50;;;;;;;18.21;71.76;96703.06;29395;196;63008;-66
2023/06/11 01:11:35;;;;;;;0.50;0.50;;;;;;;18.22;71.73;96699.97;29395;214;63005;-65
2023/06/11 01:12:08;;;;;;;0.50;0.50;;;;;;;18.23;71.92;96700.75;29395;226;63009;-64
2023/06/11 01:12:39;;;;;;;0.40;0.40;;;;;;;18.23;72.28;96695.28;29394;229;64009;-64
2023/06/11 01:13:11;;;;;;;0.40;0.40;;;;;;;18.21;72.75;96700.31;29395;211;63009;-67
2023/06/11 01:13:42;;;;;;;0.40;0.40;;;;;;;18.19;72.29;96700.66;29395;213;63005;-52
2023/06/11 01:14:16;;;;;;;0.50;0.50;;;;;;;18.20;72.42;96690.47;29395;237;63009;-53
2023/06/11 01:14:47;;;;;;;0.40;0.40;;;;;;;18.20;72.10;96695.97;29395;269;63005;-65
2023/06/11 01:15:19;;;;;;;0.40;0.40;;;;;;;18.19;73.40;96694.38;29395;234;63009;-65
2023/06/11 01:15:55;;;;;;;0.40;0.40;;;;;;;18.16;72.86;96700.53;29395;255;63004;-66
2023/06/11 01:17:05;;;;;;;0.40;0.40;;;;;;;18.15;72.29;96690.72;29395;204;63018;-66
2023/06/11 01:17:52;;;;;;;0.40;0.40;;;;;;;18.12;73.09;96705.12;29395;261;63004;-65
2023/06/11 01:18:34;;;;;;;0.50;0.50;;;;;;;18.11;73.00;96687.06;29394;218;64013;-66
2023/06/11 01:19:38;;;;;;;0.40;0.40;;;;;;;18.08;73.25;96694.03;29395;226;63005;-53
2023/06/11 01:20:39;;;;;;;0.47;0.47;;;;;;;18.04;74.03;96696.66;29395;228;63009;-67
2023/06/11 01:21:20;;;;;;;0.50;0.50;;;;;;;18.01;73.28;96694.63;29394;215;64009;-66
2023/06/11 01:21:59;;;;;;;0.50;0.50;;;;;;;18.01;73.30;96697.38;29417;202;63027;-65
2023/06/11 01:23:33;;;;;;;0.40;0.40;;;;;;;17.99;74.39;96696.94;29395;209;63005;-65
2023/06/11 01:24:26;;;;;;;0.45;0.45;;;;;;;17.99;73.50;96691.44;29395;301;63009;-69
2023/06/11 01:25:45;;;;;;;0.40;0.40;;;;;;;18.00;73.15;96704.03;29395;231;63004;-63
2023/06/11 01:26:45;;;;;;;0.50;0.50;;;;;;;18.02;73.56;96698.16;29394;352;64014;-64
2023/06/11 01:27:33;;;;;;;0.50;0.50;;;;;;;18.02;73.61;96701.69;29394;256;64009;-53
2023/06/11 01:28:16;;;;;;;0.40;0.40;;;;;;;18.00;74.32;96700.47;29395;282;63009;-52
2023/06/11 01:28:54;;;;;;;0.40;0.40;;;;;;;17.96;74.75;96700.34;29395;234;63005;-64
2023/06/11 01:29:26;;;;;;;0.40;0.40;;;;;;;17.95;74.66;96696.00;29395;210;63009;-67
2023/06/11 01:30:00;;;;;;;0.40;0.40;;;;;;;17.93;74.81;96703.00;29395;224;63005;-67
2023/06/11 01:30:35;;;;;;;0.40;0.40;;;;;;;17.90;75.76;96693.50;29395;251;63009;-66
2023/06/11 01:31:14;;;;;;;0.50;0.50;;;;;;;17.88;75.04;96695.78;29395;216;63008;-53
2023/06/11 01:31:45;;;;;;;0.40;0.40;;;;;;;17.87;74.93;96702.41;29395;211;63027;-65
2023/06/11 01:32:23;;;;;;;0.40;0.40;;;;;;;17.87;74.50;96702.41;29394;258;64009;-53
2023/06/11 01:32:57;;;;;;;0.40;0.40;;;;;;;17.88;74.67;96706.75;29395;201;63008;-53
2023/06/11 01:33:34;;;;;;;0.40;0.40;;;;;;;17.87;74.65;96701.63;29394;209;64008;-66
2023/06/11 01:34:05;;;;;;;0.40;0.40;;;;;;;17.86;74.34;96703.56;29395;213;63009;-66
2023/06/11 01:34:41;;;;;;;0.43;0.43;;;;;;;17.86;75.20;96706.31;29395;218;63005;-54
2023/06/11 01:35:14;;;;;;;0.40;0.40;;;;;;;17.85;74.64;96707.44;29395;240;63024;-63
2023/06/11 01:35:48;;;;;;;0.40;0.40;;;;;;;17.85;74.68;96704.72;29395;268;63005;-65
2023/06/11 01:36:24;;;;;;;0.40;0.40;;;;;;;17.87;74.90;96699.69;29395;250;63009;-66
2023/06/11 01:36:57;;;;;;;0.40;0.40;;;;;;;17.87;74.99;96704.38;29395;238;63005;-66
2023/06/11 01:37:29;;;;;;;0.40;0.40;;;;;;;17.86;74.44;96703.56;29395;232;63009;-65
2023/06/11 01:38:02;;;;;;;0.40;0.40;;;;;;;17.86;74.62;96703.56;29394;223;64009;-65
2023/06/11 01:38:41;;;;;;;0.40;0.40;;;;;;;17.87;75.51;96712.59;29395;227;63009;-66
2023/06/11 01:39:13;;;;;;;0.40;0.40;;;;;;;17.85;76.04;96701.97;29395;254;63004;-66
2023/06/11 01:39:45;;;;;;;0.40;0.40;;;;;;;17.82;76.00;96699.91;29395;353;63009;-64
2023/06/11 01:40:17;;;;;;;0.40;0.40;;;;;;;17.82;75.94;96712.81;29395;218;63004;-53
2023/06/11 01:40:48;;;;;;;0.40;0.40;;;;;;;17.81;75.99;96703.78;29395;348;63016;-53
2023/06/11 01:41:20;;;;;;;0.40;0.40;;;;;;;17.79;76.03;96713.50;29395;224;63005;-67
2023/06/11 01:42:58;;;;;;;0.43;0.43;;;;;;;17.73;76.50;96089.44;88178;202;64014;-65
2023/06/11 01:43:30;;;;;;;0.43;0.43;;;;;;;17.72;76.42;96089.78;29394;281;64009;-65
2023/06/11 01:44:02;;;;;;;0.40;0.40;;;;;;;17.71;76.94;96093.66;29395;289;63005;-65
2023/06/11 01:44:33;;;;;;;0.40;0.40;;;;;;;17.69;76.53;96088.50;29395;199;63015;-66
2023/06/11 01:45:06;;;;;;;0.40;0.40;;;;;;;17.67;76.60;96088.06;29395;218;63005;-63
2023/06/11 01:45:38;;;;;;;0.40;0.40;;;;;;;17.66;76.54;96088.44;29395;322;63027;-64
2023/06/11 01:46:09;;;;;;;0.40;0.40;;;;;;;17.65;76.64;96089.56;29394;244;64018;-64
2023/06/11 01:46:41;;;;;;;0.40;0.40;;;;;;;17.65;77.19;96089.56;29394;230;64013;-64
2023/06/11 01:47:15;;;;;;;0.40;0.40;;;;;;;17.64;77.21;96082.44;29395;203;63004;-65
2023/06/11 01:47:48;;;;;;;0.40;0.40;;;;;;;17.63;77.11;96091.81;29395;209;63009;-52
2023/06/11 01:48:20;;;;;;;0.40;0.40;;;;;;;17.61;77.37;96085.88;29395;202;63004;-65
2023/06/11 01:48:51;;;;;;;0.40;0.40;;;;;;;17.60;77.16;96087.03;29395;293;63013;-66
2023/06/11 01:49:23;;;;;;;0.40;0.40;;;;;;;17.59;77.23;96090.91;29395;218;63010;-64
2023/06/11 01:49:54;;;;;;;0.50;0.50;;;;;;;17.58;77.32;96089.31;29394;204;64014;-64
2023/06/11 01:50:26;;;;;;;0.40;0.40;;;;;;;17.57;78.08;96084.97;29394;227;64009;-66
2023/06/11 01:50:57;;;;;;;0.40;0.40;;;;;;;17.54;78.10;96088.38;29394;233;64014;-52
2023/06/11 01:51:29;;;;;;;0.40;0.40;;;;;;;17.52;77.94;96085.19;29395;216;63005;-65
2023/06/11 01:52:01;;;;;;;0.40;0.40;;;;;;;17.52;78.22;96085.97;29395;329;63020;-52
2023/06/11 01:52:32;;;;;;;0.40;0.40;;;;;;;17.50;78.42;96088.25;29395;222;63009;-66
2023/06/11 01:53:03;;;;;;;0.40;0.40;;;;;;;17.50;78.36;96084.72;29395;214;63009;-53
2023/06/11 01:53:35;;;;;;;0.40;0.40;;;;;;;17.49;78.33;96085.88;29395;254;63005;-67
2023/06/11 01:54:07;;;;;;;0.40;0.40;;;;;;;17.47;78.77;96088.16;29394;215;64013;-53
2023/06/11 01:54:39;;;;;;;0.40;0.40;;;;;;;17.46;79.04;96086.53;29395;208;63004;-64
2023/06/11 01:55:14;;;;;;;0.50;0.50;;;;;;;17.44;78.36;96089.63;29395;206;63009;-65
2023/06/11 01:55:45;;;;;;;0.47;0.47;;;;;;;17.41;79.56;96090.31;29394;216;64009;-65
2023/06/11 01:56:17;;;;;;;0.43;0.43;;;;;;;17.38;79.39;96088.25;29395;198;63009;-66
2023/06/11 01:56:51;;;;;;;0.40;0.40;;;;;;;17.36;79.51;96083.09;29395;315;63004;-65
2023/06/11 01:57:22;;;;;;;0.40;0.40;;;;;;;17.35;79.95;96089.72;29395;227;63008;-67
2023/06/11 01:57:53;;;;;;;0.40;0.40;;;;;;;17.32;80.08;96086.88;29395;250;63005;-53
2023/06/11 01:58:25;;;;;;;0.40;0.40;;;;;;;17.31;79.21;96094.31;29395;207;63009;-52
2023/06/11 01:58:57;;;;;;;0.40;0.40;;;;;;;17.31;79.49;96088.81;29395;266;63005;-52
2023/06/11 01:59:29;;;;;;;0.40;0.40;;;;;;;17.31;79.45;96091.56;29395;236;63026;-53
2023/06/11 02:00:00;;;;;;;0.40;0.40;;;;;;;17.30;79.57;96083.69;29395;382;63005;-66
2023/06/11 02:00:32;;;;;;;0.40;0.40;;;;;;;17.30;79.24;96089.16;29395;203;63009;-66
2023/06/11 02:01:04;;;;;;;0.40;0.40;;;;;;;17.29;79.65;96082.87;29394;202;64009;-52
2023/06/11 02:01:36;;;;;;;0.40;0.40;;;;;;;17.28;79.51;96088.69;29395;207;63009;-66
2023/06/11 02:02:08;;;;;;;0.40;0.40;;;;;;;17.26;79.93;96086.31;29395;208;63004;-54
2023/06/11 02:02:41;;;;;;;0.40;0.40;;;;;;;17.26;80.04;96089.03;29395;234;63009;-65
2023/06/11 02:03:12;;;;;;;0.40;0.40;;;;;;;17.25;79.56;96092.94;29394;197;64009;-66
2023/06/11 02:03:47;;;;;;;0.40;0.40;;;;;;;17.24;79.23;96080.34;29395;267;63009;-66
2023/06/11 02:04:22;;;;;;;0.40;0.40;;;;;;;17.25;79.41;96086.62;29395;394;63004;-65
2023/06/11 02:04:53;;;;;;;0.40;0.40;;;;;;;17.24;79.00;96083.09;29394;224;64013;-65
2023/06/11 02:05:25;;;;;;;0.40;0.40;;;;;;;17.26;79.05;96093.72;29395;209;63005;-66
2023/06/11 02:05:56;;;;;;;0.40;0.40;;;;;;;17.26;78.92;96085.50;29395;197;63009;-67
2023/06/11 02:06:30;;;;;;;0.40;0.40;;;;;;;17.26;78.89;96086.31;29395;270;63005;-52
2023/06/11 02:07:02;;;;;;;0.40;0.40;;;;;;;17.26;78.97;96080.81;29394;202;64009;-65
2023/06/11 02:07:35;;;;;;;0.40;0.40;;;;;;;17.27;79.41;96085.16;29395;226;63005;-52
2023/06/11 02:08:06;;;;;;;0.40;0.40;;;;;;;17.26;79.19;96083.56;29395;218;63019;-67
2023/06/11 02:08:38;;;;;;;0.40;0.40;;;;;;;17.26;79.62;96089.03;29394;236;64009;-66
2023/06/11 02:09:09;;;;;;;0.40;0.40;;;;;;;17.26;79.51;96080.81;29395;248;63009;-65
2023/06/11 02:09:41;;;;;;;0.40;0.40;;;;;;;17.25;79.82;96086.62;29395;208;63004;-52
2023/06/11 02:10:13;;;;;;;0.40;0.40;;;;;;;17.24;79.40;96085.84;29395;259;63004;-66
2023/06/11 02:10:44;;;;;;;0.40;0.40;;;;;;;17.24;79.50;96085.84;29395;317;63004;-66
2023/06/11 02:11:17;;;;;;;0.40;0.40;;;;;;;17.24;79.57;96085.03;29395;218;63009;-65
2023/06/11 02:11:48;;;;;;;0.37;0.37;;;;;;;17.23;79.82;96086.97;29395;221;63004;-67
2023/06/11 02:12:20;;;;;;;0.40;0.40;;;;;;;17.22;79.49;96081.84;29395;237;63008;-65
2023/06/11 02:12:52;;;;;;;0.30;0.30;;;;;;;17.20;79.64;96079.44;29395;216;63005;-66
2023/06/11 02:13:30;;;;;;;0.40;0.40;;;;;;;17.21;79.08;96080.22;29395;224;63009;-64
2023/06/11 02:14:01;;;;;;;0.40;0.40;;;;;;;17.21;79.39;96083.78;29394;210;64009;-65
2023/06/11 02:14:36;;;;;;;0.40;0.40;;;;;;;17.21;79.04;96086.50;29395;204;63009;-66
2023/06/11 02:15:09;;;;;;;0.40;0.40;;;;;;;17.22;79.54;96079.91;29395;202;63005;-66
2023/06/11 02:15:40;;;;;;;0.40;0.40;;;;;;;17.21;79.29;96083.78;29395;314;63009;-65
2023/06/11 02:16:12;;;;;;;0.40;0.40;;;;;;;17.20;79.68;96081.38;29395;259;63004;-66
2023/06/11 02:16:43;;;;;;;0.40;0.40;;;;;;;17.18;79.82;96076.22;29395;247;63009;-66
2023/06/11 02:17:14;;;;;;;0.40;0.40;;;;;;;17.18;79.77;96080.91;29395;216;63004;-67
2023/06/11 02:17:46;;;;;;;0.40;0.40;;;;;;;17.15;80.29;96079.66;29395;253;63009;-66
2023/06/11 02:18:18;;;;;;;0.40;0.40;;;;;;;17.13;80.32;96079.19;29394;230;64004;-66
2023/06/11 02:18:53;;;;;;;0.40;0.40;;;;;;;17.12;80.02;96076.78;29394;204;64013;-66
2023/06/11 02:19:24;;;;;;;0.40;0.40;;;;;;;17.12;79.60;96077.59;29395;204;63004;-66
2023/06/11 02:19:56;;;;;;;0.40;0.40;;;;;;;17.12;79.34;96083.06;29395;208;63008;-66
2023/06/11 02:20:28;;;;;;;0.40;0.40;;;;;;;17.12;79.56;96076.78;29395;232;63019;-66
2023/06/11 02:20:59;;;;;;;0.40;0.40;;;;;;;17.12;79.37;96074.84;29395;235;63009;-66
2023/06/11 02:21:30;;;;;;;0.40;0.40;;;;;;;17.12;79.34;96069.34;29395;209;63005;-66
2023/06/11 02:22:01;;;;;;;0.40;0.40;;;;;;;17.14;79.08;96075.31;29395;292;63009;-65
2023/06/11 02:22:34;;;;;;;0.40;0.40;;;;;;;17.17;78.81;96080.09;29395;207;63005;-68
2023/06/11 02:23:05;;;;;;;0.40;0.40;;;;;;;17.17;78.86;96074.63;29395;221;63016;-67
2023/06/11 02:23:37;;;;;;;0.40;0.40;;;;;;;17.18;79.11;96076.22;29394;204;64009;-67
2023/06/11 02:24:08;;;;;;;0.40;0.40;;;;;;;17.18;78.93;96084.44;29395;229;63009;-66
2023/06/11 02:24:40;;;;;;;0.40;0.40;;;;;;;17.19;78.91;96077.03;29394;215;64009;-67
2023/06/11 02:25:11;;;;;;;0.40;0.40;;;;;;;17.18;79.03;96076.22;29395;320;63009;-66
2023/06/11 02:25:43;;;;;;;0.40;0.40;;;;;;;17.19;79.08;96079.78;29395;231;63004;-66
2023/06/11 02:26:14;;;;;;;0.40;0.40;;;;;;;17.19;78.79;96082.50;29394;227;64013;-65
2023/06/11 02:26:47;;;;;;;0.40;0.40;;;;;;;17.20;78.41;96090.41;29395;222;63004;-66
2023/06/11 02:27:18;;;;;;;0.40;0.40;;;;;;;17.22;78.71;96079.91;29395;263;63009;-52
2023/06/11 02:27:50;;;;;;;0.40;0.40;;;;;;;17.23;79.36;96083.44;29395;260;63005;-52
2023/06/11 02:28:21;;;;;;;0.40;0.40;;;;;;;17.23;79.02;96080.69;29394;204;64014;-66
2023/06/11 02:28:53;;;;;;;0.40;0.40;;;;;;;17.23;78.32;96081.50;29395;211;63005;-66
2023/06/11 02:29:24;;;;;;;0.40;0.40;;;;;;;17.24;78.89;96083.09;29395;321;63009;-66
2023/06/11 02:29:56;;;;;;;0.40;0.40;;;;;;;17.24;78.47;96080.34;29394;236;64009;-51
2023/06/11 02:30:27;;;;;;;0.40;0.40;;;;;;;17.24;78.53;96085.84;29395;304;63009;-67
2023/06/11 02:30:59;;;;;;;0.40;0.40;;;;;;;17.25;78.11;96078.41;29394;223;64009;-65
2023/06/11 02:31:30;;;;;;;0.40;0.40;;;;;;;17.25;78.40;96087.44;29395;272;63009;-66
2023/06/11 02:32:02;;;;;;;0.40;0.40;;;;;;;17.25;78.52;96086.62;29395;238;63004;-65
2023/06/11 02:32:37;;;;;;;0.40;0.40;;;;;;;17.24;78.20;96088.59;29395;248;63009;-52
2023/06/11 02:33:08;;;;;;;0.73;0.73;;;;;;;17.24;78.30;96083.09;29395;199;63004;-67
2023/06/11 02:33:39;;;;;;;0.43;0.43;;;;;;;17.25;78.55;96087.44;29395;236;63008;-65
2023/06/11 02:34:11;;;;;;;0.40;0.40;;;;;;;17.23;78.69;96086.97;29395;198;63004;-66
2023/06/11 02:34:42;;;;;;;0.40;0.40;;;;;;;17.24;78.44;96085.84;29394;227;64014;-65
2023/06/11 02:35:13;;;;;;;0.40;0.40;;;;;;;17.23;78.62;96084.25;29395;207;63005;-66
2023/06/11 02:35:47;;;;;;;0.40;0.40;;;;;;;17.23;78.76;96084.25;29395;230;63009;-67
2023/06/11 02:36:19;;;;;;;0.40;0.40;;;;;;;17.19;79.29;96088.00;29394;281;64009;-67
2023/06/11 02:36:51;;;;;;;0.40;0.40;;;;;;;17.16;79.13;96083.19;29395;273;63009;-67
2023/06/11 02:37:22;;;;;;;0.40;0.40;;;;;;;17.15;78.87;96087.88;29395;225;63005;-66
2023/06/11 02:37:54;;;;;;;0.40;0.40;;;;;;;17.16;78.58;96088.66;29395;225;63009;-67
2023/06/11 02:38:25;;;;;;;0.40;0.40;;;;;;;17.16;78.80;96089.47;29395;309;63005;-67
2023/06/11 02:38:56;;;;;;;0.40;0.40;;;;;;;17.18;78.77;96086.41;29395;270;63009;-65
2023/06/11 02:39:27;;;;;;;0.40;0.40;;;;;;;17.18;78.25;96091.87;29395;199;63004;-67
2023/06/11 02:39:58;;;;;;;0.40;0.40;;;;;;;17.18;78.05;96092.69;29395;204;63004;-65
2023/06/11 02:40:30;;;;;;;0.40;0.40;;;;;;;17.21;78.05;96091.19;29394;282;64009;-66
2023/06/11 02:41:01;;;;;;;0.40;0.40;;;;;;;17.22;77.75;96087.31;29395;280;63009;-65
2023/06/11 02:41:33;;;;;;;0.40;0.40;;;;;;;17.22;78.02;96085.38;29395;238;63010;-64
2023/06/11 02:42:05;;;;;;;0.40;0.40;;;;;;;17.23;78.01;96092.47;29394;202;64014;-66
2023/06/11 02:42:36;;;;;;;0.40;0.40;;;;;;;17.22;77.69;96092.81;29395;209;63005;-65
2023/06/11 02:43:08;;;;;;;0.40;0.40;;;;;;;17.22;78.15;96093.59;29395;294;63005;-67
2023/06/11 02:43:39;;;;;;;0.40;0.40;;;;;;;17.22;78.02;96096.34;29395;285;63005;-66
2023/06/11 02:44:10;;;;;;;0.40;0.40;;;;;;;17.22;78.14;96093.59;29394;251;64013;-64